Time;durP1;ratioP1;P1;durP2;ratioP2;P2;SDS_P1;SDS_P2;PMS_P1;PMS_P2;Temp;Humidity;BMP_temperature;BMP_pressure;BME280_temperature;BME280_humidity;BME280_pressure;Samples;Min_cycle;Max_cycle;Signal;HPM_P1;HPM_P2
2022/12/10 00:01:24;;;;;;;32.13;21.60;;;8.50;59.60;;;;;;5048461;28;20454;-60
2022/12/10 00:03:50;;;;;;;31.13;21.77;;;8.50;59.60;;;;;;5035425;28;20451;-59
2022/12/10 00:06:21;;;;;;;31.13;21.90;;;8.50;59.50;;;;;;5035244;28;22844;-59
2022/12/10 00:08:47;;;;;;;32.90;21.37;;;8.50;59.70;;;;;;5043182;28;20505;-59
2022/12/10 00:11:15;;;;;;;31.87;22.10;;;8.50;59.80;;;;;;5049320;28;20988;-59
2022/12/10 00:13:41;;;;;;;39.60;26.47;;;8.50;60.10;;;;;;5041898;28;20213;-59
2022/12/10 00:16:09;;;;;;;41.37;26.07;;;8.50;60.10;;;;;;5035370;28;20861;-59
2022/12/10 00:18:35;;;;;;;45.57;27.93;;;8.50;60.00;;;;;;5042418;28;20202;-60
2022/12/10 00:21:10;;;;;;;35.37;23.50;;;8.50;59.80;;;;;;5050187;28;20997;-59
2022/12/10 00:23:36;;;;;;;33.70;22.90;;;8.50;59.90;;;;;;5037176;28;20495;-60
2022/12/10 00:26:19;;;;;;;35.90;23.43;;;8.50;59.80;;;;;;5041858;28;20478;-59
2022/12/10 00:28:45;;;;;;;36.73;24.17;;;8.50;59.90;;;;;;5041711;28;20830;-59
2022/12/10 00:31:14;;;;;;;31.90;21.27;;;8.50;59.90;;;;;;5042115;28;20817;-59
2022/12/10 00:33:41;;;;;;;37.33;22.90;;;8.50;60.00;;;;;;5046629;28;20451;-59
2022/12/10 00:36:22;;;;;;;35.50;23.67;;;8.50;60.40;;;;;;5049245;28;20449;-59
2022/12/10 00:38:49;;;;;;;35.93;23.33;;;8.40;60.60;;;;;;5043960;28;20459;-60
2022/12/10 00:41:15;;;;;;;37.10;23.83;;;8.40;60.70;;;;;;5039927;28;20485;-59
2022/12/10 00:43:42;;;;;;;35.73;23.20;;;8.40;60.90;;;;;;5041261;28;20466;-59
2022/12/10 00:46:07;;;;;;;36.43;23.90;;;8.40;60.80;;;;;;5043666;28;20538;-59
2022/12/10 00:48:34;;;;;;;35.80;23.77;;;8.40;60.90;;;;;;5048928;28;20890;-59
2022/12/10 00:51:09;;;;;;;39.87;24.87;;;8.40;60.90;;;;;;5039957;28;20487;-59
2022/12/10 00:53:37;;;;;;;38.80;25.10;;;8.50;61.10;;;;;;5047516;28;20473;-59
2022/12/10 00:56:03;;;;;;;38.97;23.87;;;8.50;61.00;;;;;;5044659;28;21047;-59
2022/12/10 00:58:31;;;;;;;44.30;25.87;;;8.40;60.80;;;;;;5031726;28;20702;-59
2022/12/10 01:01:34;;;;;;;41.60;24.97;;;8.50;61.10;;;;;;5036173;28;20459;-59
2022/12/10 01:04:06;;;;;;;39.67;25.50;;;8.50;61.10;;;;;;4996562;28;20448;-59
2022/12/10 01:06:40;;;;;;;36.27;23.00;;;8.40;61.20;;;;;;5042489;28;20505;-60
2022/12/10 01:09:08;;;;;;;40.10;24.53;;;8.50;61.40;;;;;;5044486;28;20482;-59
2022/12/10 01:11:38;;;;;;;39.70;25.37;;;8.50;62.10;;;;;;5040791;28;20866;-59
2022/12/10 01:14:06;;;;;;;34.13;23.33;;;8.50;61.10;;;;;;5045285;28;21039;-59
2022/12/10 01:16:32;;;;;;;39.60;24.40;;;8.60;61.10;;;;;;5037886;28;20533;-59
2022/12/10 01:18:59;;;;;;;32.07;23.80;;;8.60;60.90;;;;;;5034650;28;20993;-58
2022/12/10 01:21:26;;;;;;;35.33;23.20;;;8.60;60.80;;;;;;5036712;28;20200;-58
2022/12/10 01:23:52;;;;;;;34.40;23.73;;;8.60;60.60;;;;;;5034976;28;20470;-61
2022/12/10 01:26:24;;;;;;;34.70;23.73;;;8.70;60.60;;;;;;5034377;28;20506;-59
2022/12/10 01:28:50;;;;;;;42.17;23.13;;;8.60;60.30;;;;;;5034540;28;20578;-59
2022/12/10 01:31:26;;;;;;;36.13;23.27;;;8.70;60.40;;;;;;5045590;28;20524;-59
2022/12/10 01:33:52;;;;;;;34.60;22.63;;;8.70;60.20;;;;;;5039644;28;20427;-59
2022/12/10 01:36:23;;;;;;;36.03;23.53;;;8.60;60.10;;;;;;5033183;28;20433;-59
2022/12/10 01:38:50;;;;;;;41.63;25.40;;;8.60;60.10;;;;;;5035478;28;20184;-59
2022/12/10 01:41:19;;;;;;;34.97;23.03;;;8.60;60.00;;;;;;5039588;28;20448;-59
2022/12/10 01:44:04;;;;;;;33.03;22.40;;;8.60;60.10;;;;;;5036941;28;20439;-59
2022/12/10 01:46:32;;;;;;;36.33;23.40;;;8.70;60.20;;;;;;5036473;28;20454;-61
2022/12/10 01:49:00;;;;;;;33.80;22.43;;;8.60;60.10;;;;;;5037832;28;20927;-60
2022/12/10 01:51:28;;;;;;;36.13;25.10;;;8.60;60.10;;;;;;5042296;28;20446;-59
2022/12/10 01:53:54;;;;;;;35.50;24.03;;;8.60;60.10;;;;;;5041498;28;21273;-59
2022/12/10 01:56:20;;;;;;;37.43;24.20;;;8.60;60.10;;;;;;5035983;28;20450;-59
2022/12/10 01:58:49;;;;;;;36.77;21.87;;;8.60;60.10;;;;;;5041449;28;20289;-59
2022/12/10 02:01:20;;;;;;;33.50;22.57;;;8.50;60.00;;;;;;5039700;28;20505;-59
2022/12/10 02:04:04;;;;;;;30.37;21.00;;;8.60;60.30;;;;;;5041524;28;20985;-59
2022/12/10 02:06:42;;;;;;;31.73;21.50;;;8.50;60.10;;;;;;5037020;28;20447;-59
2022/12/10 02:09:20;;;;;;;30.70;20.80;;;8.50;60.10;;;;;;5035195;28;20878;-59
2022/12/10 02:12:04;;;;;;;29.23;22.40;;;8.50;60.00;;;;;;5033494;28;20481;-59
2022/12/10 02:14:43;;;;;;;24.53;19.97;;;8.50;59.80;;;;;;5038989;28;20463;-61
2022/12/10 02:17:21;;;;;;;29.70;20.30;;;8.50;59.70;;;;;;5036111;28;20454;-59
2022/12/10 02:19:50;;;;;;;31.10;19.03;;;8.50;59.80;;;;;;5043785;28;20533;-59
2022/12/10 02:22:19;;;;;;;26.77;19.17;;;8.50;59.80;;;;;;5047640;28;20477;-59
2022/12/10 02:24:49;;;;;;;24.83;17.87;;;8.50;59.90;;;;;;5037664;28;20811;-59
2022/12/10 02:27:32;;;;;;;27.90;18.83;;;8.50;59.80;;;;;;5039496;28;20483;-59
2022/12/10 02:30:00;;;;;;;29.40;20.07;;;8.40;59.90;;;;;;5037600;28;21471;-59
2022/12/10 02:32:32;;;;;;;29.50;19.10;;;8.50;59.90;;;;;;5050573;28;20442;-59
2022/12/10 02:35:03;;;;;;;27.80;19.70;;;8.50;59.80;;;;;;5037556;28;20435;-59
2022/12/10 02:37:36;;;;;;;29.20;19.53;;;8.50;59.60;;;;;;5043755;28;20500;-59
2022/12/10 02:40:07;;;;;;;30.90;22.20;;;8.50;59.60;;;;;;5037786;28;20950;-59
2022/12/10 02:42:37;;;;;;;36.40;23.33;;;8.50;59.80;;;;;;5038855;28;20432;-59
2022/12/10 02:45:04;;;;;;;32.27;21.17;;;8.50;59.80;;;;;;5045607;28;20495;-59
2022/12/10 02:47:31;;;;;;;29.83;21.43;;;8.50;59.70;;;;;;5040809;28;20458;-59
2022/12/10 02:49:58;;;;;;;31.57;22.00;;;8.50;59.90;;;;;;5037931;28;20536;-58
2022/12/10 02:52:25;;;;;;;31.20;20.43;;;8.50;59.90;;;;;;5033397;28;20517;-58
2022/12/10 02:54:51;;;;;;;28.87;20.13;;;8.50;59.90;;;;;;5035197;28;20474;-59
2022/12/10 02:57:37;;;;;;;32.87;21.93;;;8.50;60.80;;;;;;5035280;28;20442;-59
2022/12/10 03:00:08;;;;;;;32.90;21.97;;;8.50;60.20;;;;;;5034464;28;20534;-59
2022/12/10 03:02:43;;;;;;;31.67;22.03;;;8.50;60.20;;;;;;5038583;28;21012;-58
2022/12/10 03:05:27;;;;;;;31.03;21.30;;;8.50;60.40;;;;;;5038571;28;20788;-59
2022/12/10 03:08:03;;;;;;;31.77;22.13;;;8.40;60.50;;;;;;5042012;28;20485;-59
2022/12/10 03:10:35;;;;;;;29.37;21.33;;;8.40;60.70;;;;;;5040400;28;21299;-58
2022/12/10 03:13:06;;;;;;;28.40;20.50;;;8.40;60.80;;;;;;5054267;28;20438;-59
2022/12/10 03:15:35;;;;;;;29.60;20.53;;;8.40;60.80;;;;;;5040924;28;20447;-59
2022/12/10 03:18:05;;;;;;;30.87;19.50;;;8.40;60.60;;;;;;5054335;28;20476;-59
2022/12/10 03:20:33;;;;;;;34.37;21.77;;;8.40;60.30;;;;;;5039636;28;20435;-59
2022/12/10 03:23:01;;;;;;;29.60;21.80;;;8.40;60.40;;;;;;5037734;28;20540;-59
2022/12/10 03:25:29;;;;;;;30.63;21.43;;;8.40;60.60;;;;;;5040767;28;20955;-59
2022/12/10 03:27:58;;;;;;;30.33;21.10;;;8.40;60.80;;;;;;5051144;28;20990;-59
2022/12/10 03:30:24;;;;;;;35.10;23.47;;;8.40;60.60;;;;;;5053177;28;20965;-59
2022/12/10 03:32:50;;;;;;;32.73;20.80;;;8.40;60.40;;;;;;5052701;28;20443;-59
2022/12/10 03:35:18;;;;;;;31.23;20.80;;;8.40;60.30;;;;;;5049937;28;20444;-59
2022/12/10 03:37:44;;;;;;;27.67;19.47;;;8.40;60.20;;;;;;5051228;28;20438;-59
2022/12/10 03:40:12;;;;;;;31.90;21.80;;;8.40;60.20;;;;;;5052546;28;20446;-59
2022/12/10 03:42:38;;;;;;;33.10;21.97;;;8.40;60.30;;;;;;5047608;28;20525;-59
2022/12/10 03:45:05;;;;;;;28.17;19.07;;;8.40;60.20;;;;;;5053775;28;21521;-59
2022/12/10 03:47:30;;;;;;;28.20;20.30;;;8.30;60.20;;;;;;5054666;28;20822;-59
2022/12/10 03:49:56;;;;;;;33.90;21.70;;;8.40;60.30;;;;;;5046448;28;20499;-58
2022/12/10 03:52:21;;;;;;;31.00;20.97;;;8.30;60.10;;;;;;5053207;28;20235;-59
2022/12/10 03:54:47;;;;;;;32.63;21.57;;;8.30;59.90;;;;;;5051844;28;20197;-59
2022/12/10 03:57:13;;;;;;;37.20;21.17;;;8.30;59.80;;;;;;5045963;28;20201;-58
2022/12/10 03:59:38;;;;;;;37.37;22.57;;;8.30;59.90;;;;;;5045569;28;20216;-59
2022/12/10 04:02:04;;;;;;;32.23;20.87;;;8.30;61.00;;;;;;5052500;28;20246;-58
2022/12/10 04:04:30;;;;;;;28.40;19.30;;;8.30;60.40;;;;;;5053411;28;20197;-58
2022/12/10 04:06:55;;;;;;;31.33;23.03;;;8.30;60.60;;;;;;5052732;28;20195;-59
2022/12/10 04:09:21;;;;;;;33.50;21.83;;;8.30;60.80;;;;;;5051786;28;20299;-58
2022/12/10 04:11:47;;;;;;;31.30;20.40;;;8.30;60.90;;;;;;5052397;28;20195;-59
2022/12/10 04:16:57;;;;;;;34.03;20.13;;;8.30;60.60;;;;;;5052708;28;20195;-59
2022/12/10 04:19:23;;;;;;;30.93;19.87;;;8.30;60.40;;;;;;5051768;28;20549;-58
2022/12/10 04:27:25;;;;;;;29.63;20.10;;;8.30;60.30;;;;;;5040618;28;20475;-58
2022/12/10 04:29:52;;;;;;;27.80;19.00;;;8.30;60.20;;;;;;5042277;28;20483;-61
2022/12/10 04:32:18;;;;;;;30.80;21.10;;;8.30;60.30;;;;;;5047769;28;20431;-58
2022/12/10 04:34:44;;;;;;;28.00;20.07;;;8.30;60.20;;;;;;5049223;28;20512;-59
2022/12/10 04:37:11;;;;;;;29.60;20.00;;;8.20;60.30;;;;;;5045899;28;20447;-59
2022/12/10 04:39:37;;;;;;;26.93;18.83;;;8.30;60.50;;;;;;5038000;28;20558;-59
2022/12/10 04:42:03;;;;;;;24.33;19.37;;;8.30;60.50;;;;;;5033291;28;20462;-58
2022/12/10 04:44:29;;;;;;;26.23;18.60;;;8.30;60.70;;;;;;5039845;28;20483;-58
2022/12/10 04:46:55;;;;;;;28.97;19.70;;;8.20;60.60;;;;;;5036793;28;20471;-58
2022/12/10 04:49:21;;;;;;;28.60;20.30;;;8.30;60.60;;;;;;5035078;28;20248;-58
2022/12/10 04:51:47;;;;;;;22.83;17.67;;;8.20;60.50;;;;;;5037942;28;20205;-58
2022/12/10 04:54:13;;;;;;;22.03;17.83;;;8.30;60.40;;;;;;5038340;28;21303;-58
2022/12/10 04:56:39;;;;;;;23.03;18.77;;;8.30;60.20;;;;;;5034722;28;20242;-58
2022/12/10 04:59:06;;;;;;;27.30;20.50;;;8.20;59.90;;;;;;5034818;28;20432;-59
2022/12/10 05:01:32;;;;;;;22.40;18.70;;;8.30;59.80;;;;;;5039026;28;20462;-58
2022/12/10 05:04:00;;;;;;;25.10;20.77;;;8.30;59.50;;;;;;5038521;28;20448;-58
2022/12/10 05:06:26;;;;;;;21.07;15.93;;;8.30;59.30;;;;;;5037750;28;20967;-58
2022/12/10 05:08:53;;;;;;;21.80;16.83;;;8.30;59.20;;;;;;5034517;28;20444;-58
2022/12/10 05:11:20;;;;;;;27.33;16.70;;;8.30;59.20;;;;;;5045591;28;20453;-58
2022/12/10 05:13:46;;;;;;;21.60;15.40;;;8.20;58.90;;;;;;5038730;28;20498;-58
2022/12/10 05:16:15;;;;;;;21.03;15.77;;;8.20;58.90;;;;;;5043439;28;20441;-60
2022/12/10 05:18:40;;;;;;;20.27;15.23;;;8.30;59.00;;;;;;5045615;28;20939;-58
2022/12/10 05:21:09;;;;;;;18.50;14.80;;;8.30;59.00;;;;;;5040507;28;20544;-58
2022/12/10 05:23:43;;;;;;;20.03;15.30;;;8.30;58.90;;;;;;5038096;28;20688;-58
2022/12/10 05:26:23;;;;;;;22.63;15.93;;;8.20;58.90;;;;;;5038637;28;20454;-58
2022/12/10 05:28:54;;;;;;;21.27;14.53;;;8.20;58.80;;;;;;5032327;28;20687;-58
2022/12/10 05:31:26;;;;;;;18.30;14.10;;;8.30;58.80;;;;;;5035144;28;20478;-58
2022/12/10 05:33:52;;;;;;;21.33;15.00;;;8.20;58.60;;;;;;5045562;28;20447;-58
2022/12/10 05:36:21;;;;;;;20.43;15.87;;;8.20;58.60;;;;;;5041463;28;20436;-58
2022/12/10 05:38:47;;;;;;;21.00;15.87;;;8.20;58.50;;;;;;5043360;28;20435;-58
2022/12/10 05:41:24;;;;;;;20.03;14.13;;;8.20;58.40;;;;;;5031984;28;20443;-58
2022/12/10 05:43:52;;;;;;;21.23;16.43;;;8.20;58.30;;;;;;5031670;28;20499;-58
2022/12/10 05:46:26;;;;;;;19.43;16.20;;;8.20;58.20;;;;;;5034465;28;20529;-58
2022/12/10 05:48:52;;;;;;;19.23;15.20;;;8.20;58.20;;;;;;5035632;28;20472;-58
2022/12/10 05:51:20;;;;;;;21.37;16.00;;;8.20;58.10;;;;;;5039354;28;20464;-58
2022/12/10 05:53:46;;;;;;;18.97;14.80;;;8.20;58.10;;;;;;5038702;28;20462;-58
2022/12/10 05:56:15;;;;;;;22.00;14.63;;;8.20;58.10;;;;;;5038174;28;20931;-59
2022/12/10 05:58:42;;;;;;;20.40;15.63;;;8.20;58.00;;;;;;5038107;28;20482;-58
2022/12/10 06:01:14;;;;;;;23.73;15.93;;;8.20;58.00;;;;;;5039937;28;20439;-58
2022/12/10 06:03:39;;;;;;;23.20;16.80;;;8.20;58.00;;;;;;5046237;28;20450;-58
2022/12/10 06:06:06;;;;;;;22.23;15.33;;;8.20;58.00;;;;;;5049610;28;20447;-58
2022/12/10 06:08:33;;;;;;;23.00;16.43;;;8.20;58.00;;;;;;5047750;28;20211;-59
2022/12/10 06:11:02;;;;;;;19.50;14.20;;;8.20;57.90;;;;;;5035736;28;20958;-59
2022/12/10 06:13:28;;;;;;;19.33;14.60;;;8.10;57.80;;;;;;5036995;28;20726;-58
2022/12/10 06:15:53;;;;;;;22.80;12.60;;;8.10;58.00;;;;;;5045472;28;21075;-60
2022/12/10 06:18:19;;;;;;;19.57;14.43;;;8.10;58.50;;;;;;5041817;28;20241;-60
2022/12/10 06:20:44;;;;;;;23.63;14.93;;;8.40;60.90;;;;;;5046599;28;20245;-60
2022/12/10 06:23:10;;;;;;;17.17;13.43;;;8.70;61.90;;;;;;5053586;28;20256;-60
2022/12/10 06:25:38;;;;;;;19.17;16.03;;;9.10;62.20;;;;;;5042309;28;20197;-60
2022/12/10 06:28:04;;;;;;;20.27;15.60;;;9.30;61.50;;;;;;5043978;28;20567;-60
2022/12/10 06:30:30;;;;;;;21.57;15.60;;;9.60;60.10;;;;;;5040632;28;20815;-60
2022/12/10 06:32:56;;;;;;;19.73;15.70;;;9.70;58.90;;;;;;5038251;28;20482;-60
2022/12/10 06:35:21;;;;;;;26.30;16.30;;;9.80;57.30;;;;;;5038436;28;20202;-60
2022/12/10 06:37:49;;;;;;;21.03;16.17;;;9.90;56.30;;;;;;5039467;28;20199;-60
2022/12/10 06:40:15;;;;;;;19.50;14.87;;;10.00;54.40;;;;;;5033692;28;20185;-60
2022/12/10 06:42:40;;;;;;;18.90;15.00;;;9.90;54.50;;;;;;5039699;28;20445;-60
2022/12/10 06:45:06;;;;;;;19.50;15.30;;;9.80;54.10;;;;;;5045815;28;20204;-60
2022/12/10 06:47:32;;;;;;;19.00;14.77;;;9.70;54.00;;;;;;5039146;28;20271;-60
2022/12/10 06:49:58;;;;;;;19.83;15.00;;;9.70;54.50;;;;;;5044540;28;20585;-60
2022/12/10 06:52:23;;;;;;;20.70;14.60;;;9.80;54.90;;;;;;5035519;28;20235;-60
2022/12/10 06:54:49;;;;;;;19.30;14.87;;;9.80;54.40;;;;;;5044111;28;20185;-60
2022/12/10 06:57:14;;;;;;;18.10;14.90;;;9.90;54.20;;;;;;5044960;28;20709;-60
2022/12/10 06:59:40;;;;;;;22.93;15.60;;;10.00;53.50;;;;;;5046306;28;20205;-60
2022/12/10 07:02:07;;;;;;;22.13;16.77;;;10.00;53.00;;;;;;5048317;28;20271;-60
2022/12/10 07:04:32;;;;;;;19.87;15.23;;;10.10;52.90;;;;;;5050849;28;20196;-60
2022/12/10 07:06:58;;;;;;;19.50;15.57;;;10.20;53.10;;;;;;5050237;28;21276;-60
2022/12/10 07:09:23;;;;;;;18.30;14.83;;;10.30;53.10;;;;;;5044823;28;20285;-61
2022/12/10 07:11:49;;;;;;;20.73;15.90;;;10.40;52.70;;;;;;5043732;28;21803;-61
2022/12/10 07:14:16;;;;;;;20.07;16.00;;;10.40;52.20;;;;;;5038990;28;20214;-61
2022/12/10 07:16:42;;;;;;;28.10;15.60;;;10.40;51.60;;;;;;5037104;28;20677;-61
2022/12/10 07:19:10;;;;;;;22.23;16.47;;;10.20;51.20;;;;;;5045402;28;20788;-61
2022/12/10 07:21:37;;;;;;;19.93;16.00;;;10.10;51.60;;;;;;5037091;28;20446;-61
2022/12/10 07:24:10;;;;;;;20.57;14.93;;;10.00;52.00;;;;;;5038790;28;20468;-61
2022/12/10 07:26:38;;;;;;;21.40;16.63;;;9.90;53.00;;;;;;5035453;28;20432;-61
2022/12/10 07:29:05;;;;;;;22.20;15.90;;;9.70;53.20;;;;;;5035771;28;20454;-61
2022/12/10 07:31:31;;;;;;;21.20;16.03;;;9.60;53.60;;;;;;5036423;28;20432;-61
2022/12/10 07:33:58;;;;;;;21.23;17.07;;;9.40;54.00;;;;;;5037434;28;20455;-61
2022/12/10 07:36:24;;;;;;;25.17;17.20;;;9.40;54.40;;;;;;5049388;28;20679;-61
2022/12/10 07:38:51;;;;;;;21.70;16.50;;;9.40;54.50;;;;;;5038948;28;20989;-61
2022/12/10 07:41:17;;;;;;;21.70;16.30;;;9.30;54.60;;;;;;5047585;28;20438;-61
2022/12/10 07:43:44;;;;;;;20.90;17.60;;;9.30;54.60;;;;;;5039399;28;20454;-61
2022/12/10 07:46:16;;;;;;;23.43;17.23;;;9.30;54.50;;;;;;5053614;28;20526;-61
2022/12/10 07:48:43;;;;;;;19.30;15.57;;;9.20;54.50;;;;;;5049490;28;20443;-61
2022/12/10 07:51:10;;;;;;;22.67;16.90;;;9.10;54.80;;;;;;5038663;28;20540;-61
2022/12/10 07:53:35;;;;;;;20.80;16.10;;;9.10;55.20;;;;;;5040888;28;20432;-61
2022/12/10 07:56:02;;;;;;;20.57;16.63;;;9.10;55.20;;;;;;5045002;28;20471;-61
2022/12/10 07:58:27;;;;;;;20.50;16.00;;;9.20;55.40;;;;;;5049760;28;20220;-61
2022/12/10 08:00:53;;;;;;;23.70;16.67;;;9.20;55.90;;;;;;5051222;28;20543;-61
2022/12/10 08:03:18;;;;;;;26.93;17.47;;;9.30;54.90;;;;;;5036238;28;20856;-60
2022/12/10 08:05:44;;;;;;;23.33;17.60;;;9.20;54.80;;;;;;5048995;28;20612;-61
2022/12/10 08:08:10;;;;;;;22.73;17.40;;;9.10;54.90;;;;;;5039218;28;20319;-61
2022/12/10 08:10:37;;;;;;;21.40;17.60;;;9.10;54.90;;;;;;5051749;28;20586;-61
2022/12/10 08:13:03;;;;;;;20.93;16.40;;;9.10;55.10;;;;;;5050919;28;20193;-60
2022/12/10 08:15:28;;;;;;;23.57;17.53;;;9.10;55.20;;;;;;5048878;28;20444;-61
2022/12/10 08:17:55;;;;;;;21.70;16.30;;;9.10;55.20;;;;;;5053295;28;20795;-61
2022/12/10 08:20:21;;;;;;;23.80;17.17;;;9.10;55.40;;;;;;5049395;28;20196;-61
2022/12/10 08:22:47;;;;;;;21.60;16.57;;;9.10;55.20;;;;;;5044121;28;20443;-61
2022/12/10 08:25:12;;;;;;;23.43;15.67;;;9.10;55.40;;;;;;5039203;28;20454;-60
2022/12/10 08:27:38;;;;;;;21.10;16.17;;;9.10;55.40;;;;;;5044424;28;20200;-60
2022/12/10 08:30:04;;;;;;;22.90;17.10;;;9.00;55.20;;;;;;5036161;28;20695;-61
2022/12/10 08:32:30;;;;;;;19.77;15.57;;;9.00;55.40;;;;;;5043371;28;20193;-61
2022/12/10 08:34:56;;;;;;;21.50;16.23;;;9.00;55.40;;;;;;5035202;28;20505;-61
2022/12/10 08:37:21;;;;;;;22.97;16.80;;;9.00;55.40;;;;;;5038796;28;20201;-61
2022/12/10 08:39:47;;;;;;;23.60;16.53;;;9.00;55.30;;;;;;5037474;28;20540;-61
2022/12/10 08:42:12;;;;;;;25.03;16.90;;;9.00;55.30;;;;;;5049693;28;20196;-61
2022/12/10 08:44:38;;;;;;;21.63;16.50;;;9.00;55.40;;;;;;5042685;28;20246;-61
2022/12/10 08:47:04;;;;;;;22.40;15.40;;;9.10;55.30;;;;;;5046713;28;20204;-61
2022/12/10 08:49:30;;;;;;;19.50;15.70;;;9.20;55.30;;;;;;5042076;28;20335;-61
2022/12/10 08:51:55;;;;;;;23.10;16.77;;;9.10;55.20;;;;;;5047019;28;20195;-61
2022/12/10 08:54:21;;;;;;;20.73;15.43;;;9.20;55.50;;;;;;5046287;28;20207;-61
2022/12/10 08:56:47;;;;;;;18.10;15.73;;;9.30;55.70;;;;;;5041015;28;20200;-61
2022/12/10 08:59:13;;;;;;;21.07;16.90;;;9.40;55.50;;;;;;5048111;28;20224;-61
2022/12/10 09:01:38;;;;;;;18.30;14.07;;;9.50;55.30;;;;;;5036028;28;20186;-61
2022/12/10 09:04:04;;;;;;;21.40;15.40;;;9.50;55.60;;;;;;5036305;28;20197;-61
2022/12/10 09:06:30;;;;;;;21.50;16.03;;;9.60;55.00;;;;;;5041181;28;20197;-61
2022/12/10 09:08:56;;;;;;;22.77;17.87;;;9.80;54.90;;;;;;5048230;28;20209;-61
2022/12/10 09:11:26;;;;;;;21.87;16.90;;;9.80;54.40;;;;;;5031612;28;20540;-60
2022/12/10 09:13:52;;;;;;;24.60;17.33;;;9.90;54.00;;;;;;5045141;28;20207;-60
2022/12/10 09:16:18;;;;;;;19.77;15.17;;;10.10;53.20;;;;;;5051300;28;20435;-60
2022/12/10 09:18:44;;;;;;;22.80;15.93;;;10.20;53.10;;;;;;5048124;28;20243;-60
2022/12/10 09:21:15;;;;;;;18.07;15.10;;;10.20;52.60;;;;;;5048542;28;20845;-60
2022/12/10 09:23:42;;;;;;;22.27;17.20;;;10.20;52.60;;;;;;5046973;28;21217;-60
2022/12/10 09:26:10;;;;;;;20.40;16.20;;;10.30;52.30;;;;;;5051371;28;20479;-60
2022/12/10 09:28:36;;;;;;;21.90;16.80;;;10.30;52.10;;;;;;5043601;28;20455;-60
2022/12/10 09:31:03;;;;;;;21.77;17.17;;;10.40;52.20;;;;;;5044573;28;20507;-60
2022/12/10 09:33:30;;;;;;;22.00;17.03;;;10.30;51.70;;;;;;5053986;28;20507;-60
2022/12/10 09:35:55;;;;;;;24.63;16.70;;;10.40;51.80;;;;;;5054872;28;20481;-60
2022/12/10 09:38:21;;;;;;;23.43;16.37;;;10.40;51.90;;;;;;5045773;28;20459;-59
2022/12/10 09:40:59;;;;;;;19.60;15.30;;;10.50;52.20;;;;;;5048492;28;20196;-60
2022/12/10 09:43:46;;;;;;;21.97;16.77;;;10.60;52.20;;;;;;5040176;28;20196;-60
2022/12/10 09:46:33;;;;;;;19.63;14.70;;;10.70;51.80;;;;;;5047367;28;20457;-60
2022/12/10 09:49:16;;;;;;;17.67;13.20;;;10.70;51.30;;;;;;5041558;28;20455;-60
2022/12/10 09:51:42;;;;;;;22.80;15.80;;;10.70;51.20;;;;;;5044197;28;20485;-59
2022/12/10 09:54:23;;;;;;;23.73;17.27;;;10.70;50.80;;;;;;5048088;28;20456;-59
2022/12/10 09:56:51;;;;;;;20.63;15.67;;;10.70;50.70;;;;;;5044454;28;20216;-59
2022/12/10 09:59:40;;;;;;;20.90;16.43;;;10.60;50.60;;;;;;5043046;28;20427;-59
2022/12/10 10:02:29;;;;;;;19.20;16.20;;;10.50;50.50;;;;;;5039496;28;20450;-59
2022/12/10 10:05:19;;;;;;;21.27;17.13;;;10.40;50.80;;;;;;5046107;28;20934;-59
2022/12/10 10:07:49;;;;;;;22.23;15.87;;;10.50;51.20;;;;;;5049175;28;20938;-59
2022/12/10 10:10:26;;;;;;;21.60;17.10;;;10.50;50.70;;;;;;5038062;28;20581;-59
2022/12/10 10:12:55;;;;;;;19.40;15.10;;;10.50;50.70;;;;;;5044206;28;20620;-60
2022/12/10 10:15:32;;;;;;;20.87;16.27;;;10.60;51.00;;;;;;5039672;28;20455;-60
2022/12/10 10:18:08;;;;;;;21.50;16.70;;;10.70;50.60;;;;;;5037254;28;20442;-60
2022/12/10 10:20:34;;;;;;;21.20;17.10;;;10.60;50.00;;;;;;5037930;28;20519;-60
2022/12/10 10:23:00;;;;;;;26.60;19.03;;;10.50;49.70;;;;;;5044555;28;20449;-60
2022/12/10 10:25:27;;;;;;;25.87;18.43;;;10.40;49.70;;;;;;5036561;28;20439;-60
2022/12/10 10:27:52;;;;;;;22.93;16.87;;;10.30;50.70;;;;;;5047926;28;20678;-59
2022/12/10 10:30:20;;;;;;;20.87;16.70;;;10.20;51.30;;;;;;5039697;28;20495;-59
2022/12/10 10:32:52;;;;;;;21.73;16.87;;;10.10;51.40;;;;;;5037346;28;20263;-60
2022/12/10 10:35:27;;;;;;;21.20;16.37;;;10.10;51.50;;;;;;5044387;28;20447;-59
2022/12/10 10:38:04;;;;;;;22.00;17.10;;;10.10;51.80;;;;;;5042448;28;20446;-59
2022/12/10 10:40:40;;;;;;;19.63;16.13;;;10.10;51.90;;;;;;5046943;28;20485;-59
2022/12/10 10:43:06;;;;;;;22.97;16.27;;;10.20;51.90;;;;;;5041111;28;20483;-59
2022/12/10 10:45:41;;;;;;;22.63;16.80;;;10.30;52.10;;;;;;5048955;28;20488;-59
2022/12/10 10:48:14;;;;;;;22.43;16.83;;;10.30;51.50;;;;;;5039717;28;20443;-59
2022/12/10 10:50:43;;;;;;;19.63;16.27;;;10.10;51.70;;;;;;5036751;28;20486;-59
2022/12/10 10:53:32;;;;;;;22.57;16.60;;;10.10;52.20;;;;;;5049626;28;20431;-59
2022/12/10 10:56:16;;;;;;;22.90;17.17;;;10.10;51.60;;;;;;5039355;28;20443;-59
2022/12/10 10:58:55;;;;;;;25.93;17.70;;;10.10;51.60;;;;;;5042759;28;20523;-59
2022/12/10 11:01:24;;;;;;;22.50;16.17;;;10.10;51.90;;;;;;5040773;28;20947;-60
2022/12/10 11:03:58;;;;;;;22.23;16.73;;;10.10;52.10;;;;;;5042326;28;20471;-60
2022/12/10 11:06:25;;;;;;;21.57;17.07;;;10.10;51.90;;;;;;5050954;28;20427;-60
2022/12/10 11:08:56;;;;;;;23.27;17.57;;;10.10;51.40;;;;;;5045306;28;20442;-60
2022/12/10 11:11:33;;;;;;;25.20;16.13;;;10.00;51.30;;;;;;5049713;28;20494;-60
2022/12/10 11:14:30;;;;;;;26.63;17.67;;;10.10;51.70;;;;;;5052662;28;20434;-61
2022/12/10 11:17:17;;;;;;;21.40;16.60;;;10.10;51.60;;;;;;5047544;28;20442;-60
2022/12/10 11:19:53;;;;;;;21.03;15.27;;;10.10;51.10;;;;;;5044873;28;21027;-61
2022/12/10 11:22:28;;;;;;;22.40;16.70;;;10.00;50.60;;;;;;5052623;28;20523;-60
2022/12/10 11:24:54;;;;;;;21.77;16.20;;;10.00;50.80;;;;;;5048967;28;20493;-60
2022/12/10 11:27:57;;;;;;;21.60;16.90;;;9.90;51.60;;;;;;5045646;28;20825;-60
2022/12/10 11:30:28;;;;;;;22.03;16.80;;;9.80;51.70;;;;;;5046555;28;20228;-60
2022/12/10 11:33:06;;;;;;;24.53;18.07;;;9.80;51.90;;;;;;5046103;28;20447;-60
2022/12/10 11:35:50;;;;;;;19.70;15.40;;;9.70;52.30;;;;;;5050775;28;20454;-60
2022/12/10 11:38:19;;;;;;;19.87;15.93;;;9.50;52.60;;;;;;5040266;28;20447;-60
2022/12/10 11:41:25;;;;;;;18.07;14.60;;;9.40;52.30;;;;;;5053309;28;20909;-60
2022/12/10 11:44:13;;;;;;;21.93;15.80;;;9.20;52.30;;;;;;5024567;28;20451;-60
2022/12/10 11:46:50;;;;;;;21.73;15.20;;;9.20;52.30;;;;;;5036521;28;20447;-60
2022/12/10 11:49:22;;;;;;;19.83;14.80;;;9.10;52.60;;;;;;5047532;28;20439;-60
2022/12/10 11:52:00;;;;;;;20.37;17.10;;;9.10;53.00;;;;;;5048718;28;20529;-60
2022/12/10 11:54:37;;;;;;;18.87;14.33;;;9.30;53.20;;;;;;5049961;28;20454;-60
2022/12/10 11:57:17;;;;;;;17.03;14.03;;;9.40;52.30;;;;;;5051935;28;20541;-60
2022/12/10 11:59:55;;;;;;;18.43;13.53;;;9.60;52.40;;;;;;5047963;28;20865;-60
2022/12/10 12:03:02;;;;;;;16.33;12.87;;;9.50;52.00;;;;;;5046249;28;20505;-60
2022/12/10 12:05:36;;;;;;;15.70;13.83;;;9.60;52.00;;;;;;5049352;28;20542;-60
2022/12/10 12:08:32;;;;;;;20.53;14.47;;;9.60;52.30;;;;;;5043978;28;20569;-60
2022/12/10 12:11:15;;;;;;;16.67;13.47;;;9.50;51.80;;;;;;5047616;28;20482;-60
2022/12/10 12:13:41;;;;;;;18.67;13.50;;;9.60;51.40;;;;;;5048693;28;20467;-60
2022/12/10 12:16:16;;;;;;;18.83;14.90;;;9.60;51.90;;;;;;5047830;28;20478;-61
2022/12/10 12:18:57;;;;;;;19.30;14.60;;;9.60;52.10;;;;;;5043683;28;20279;-60
2022/12/10 12:21:23;;;;;;;19.03;13.80;;;9.60;51.90;;;;;;5043064;28;20469;-60
2022/12/10 12:24:15;;;;;;;20.87;15.47;;;9.70;52.30;;;;;;5046553;28;21143;-60
2022/12/10 12:26:50;;;;;;;17.97;13.90;;;9.70;52.00;;;;;;5046560;28;20200;-60
2022/12/10 12:29:41;;;;;;;20.07;14.77;;;9.60;52.30;;;;;;5050904;28;20962;-60
2022/12/10 12:32:21;;;;;;;18.80;14.40;;;9.80;52.20;;;;;;5047394;28;20448;-60
2022/12/10 12:34:52;;;;;;;23.13;15.30;;;9.80;51.90;;;;;;5041382;28;20947;-60
2022/12/10 12:37:22;;;;;;;21.40;16.37;;;9.90;52.20;;;;;;5049573;28;20423;-60
2022/12/10 12:40:06;;;;;;;20.60;15.37;;;10.10;51.30;;;;;;5046551;28;20516;-61
2022/12/10 12:42:41;;;;;;;20.17;15.83;;;10.10;50.70;;;;;;5050769;28;20438;-60
2022/12/10 12:45:15;;;;;;;18.10;14.00;;;10.10;50.40;;;;;;5047876;28;20464;-60
2022/12/10 12:48:01;;;;;;;15.23;13.20;;;10.10;50.70;;;;;;5044771;28;20439;-60
2022/12/10 12:50:37;;;;;;;17.53;13.13;;;9.90;50.60;;;;;;5035586;28;20490;-61
2022/12/10 12:53:06;;;;;;;16.53;13.40;;;9.90;50.50;;;;;;5039279;28;20442;-61
2022/12/10 12:55:42;;;;;;;15.93;13.60;;;9.90;50.50;;;;;;5040083;28;20798;-60
2022/12/10 12:58:14;;;;;;;19.50;14.50;;;9.90;50.30;;;;;;5041147;28;20451;-59
2022/12/10 13:00:43;;;;;;;22.40;14.87;;;10.00;49.50;;;;;;5041813;28;20470;-60